sensor_id;sensor_type;location;lat;lon;timestamp;temperature;humidity
53926;DHT22;39836;52.754;6.866;2023-07-31T08:56:21;16.90;85.60
53926;DHT22;39836;52.754;6.866;2023-07-31T08:59:15;17.00;85.60
53926;DHT22;39836;52.754;6.866;2023-07-31T09:01:50;17.10;85.60
53926;DHT22;39836;52.754;6.866;2023-07-31T09:04:19;17.10;85.60
53926;DHT22;39836;52.754;6.866;2023-07-31T09:06:46;17.10;85.60
53926;DHT22;39836;52.754;6.866;2023-07-31T09:09:14;17.20;85.60
53926;DHT22;39836;52.754;6.866;2023-07-31T09:11:41;17.20;85.60
53926;DHT22;39836;52.754;6.866;2023-07-31T09:14:08;17.30;85.60
53926;DHT22;39836;52.754;6.866;2023-07-31T09:16:34;17.30;85.70
53926;DHT22;39836;52.754;6.866;2023-07-31T09:19:02;17.40;85.70
53926;DHT22;39836;52.754;6.866;2023-07-31T09:21:30;17.40;85.70
53926;DHT22;39836;52.754;6.866;2023-07-31T09:23:55;17.30;85.60
53926;DHT22;39836;52.754;6.866;2023-07-31T09:26:36;17.30;85.60
53926;DHT22;39836;52.754;6.866;2023-07-31T09:29:05;17.40;85.60
53926;DHT22;39836;52.754;6.866;2023-07-31T09:31:43;17.30;85.60
53926;DHT22;39836;52.754;6.866;2023-07-31T09:34:10;17.40;85.60
53926;DHT22;39836;52.754;6.866;2023-07-31T09:36:50;17.30;85.60
53926;DHT22;39836;52.754;6.866;2023-07-31T09:39:18;17.30;85.60
53926;DHT22;39836;52.754;6.866;2023-07-31T10:15:06;17.70;85.60
53926;DHT22;39836;52.754;6.866;2023-07-31T12:22:20;18.50;85.70
53926;DHT22;39836;52.754;6.866;2023-07-31T12:25:32;18.60;85.90
53926;DHT22;39836;52.754;6.866;2023-07-31T12:28:49;18.60;85.90
53926;DHT22;39836;52.754;6.866;2023-07-31T12:31:47;18.60;86.00
53926;DHT22;39836;52.754;6.866;2023-07-31T12:42:39;18.50;86.10
53926;DHT22;39836;52.754;6.866;2023-07-31T13:35:01;18.80;86.30
53926;DHT22;39836;52.754;6.866;2023-07-31T13:37:53;18.90;86.40
53926;DHT22;39836;52.754;6.866;2023-07-31T13:41:12;18.90;86.40
53926;DHT22;39836;52.754;6.866;2023-07-31T13:47:45;18.60;86.30
53926;DHT22;39836;52.754;6.866;2023-07-31T14:10:10;18.40;86.20
53926;DHT22;39836;52.754;6.866;2023-07-31T14:20:03;18.70;86.30
53926;DHT22;39836;52.754;6.866;2023-07-31T14:22:48;18.80;86.40
53926;DHT22;39836;52.754;6.866;2023-07-31T14:25:20;18.90;86.40
53926;DHT22;39836;52.754;6.866;2023-07-31T14:27:48;18.80;86.30
53926;DHT22;39836;52.754;6.866;2023-07-31T14:30:15;18.80;86.30
53926;DHT22;39836;52.754;6.866;2023-07-31T14:32:47;18.80;86.30
53926;DHT22;39836;52.754;6.866;2023-07-31T14:35:13;18.90;86.40
53926;DHT22;39836;52.754;6.866;2023-07-31T14:38:28;19.00;86.40
53926;DHT22;39836;52.754;6.866;2023-07-31T16:21:19;18.50;86.00
53926;DHT22;39836;52.754;6.866;2023-07-31T16:23:45;18.50;86.00
53926;DHT22;39836;52.754;6.866;2023-07-31T16:26:11;18.50;86.00
53926;DHT22;39836;52.754;6.866;2023-07-31T16:28:41;18.50;86.00
53926;DHT22;39836;52.754;6.866;2023-07-31T16:31:10;18.50;86.00
53926;DHT22;39836;52.754;6.866;2023-07-31T16:33:36;18.50;86.00
53926;DHT22;39836;52.754;6.866;2023-07-31T16:36:05;18.50;86.00
53926;DHT22;39836;52.754;6.866;2023-07-31T16:38:31;18.50;86.00
53926;DHT22;39836;52.754;6.866;2023-07-31T16:40:58;18.40;86.00
53926;DHT22;39836;52.754;6.866;2023-07-31T16:43:54;18.40;86.00
53926;DHT22;39836;52.754;6.866;2023-07-31T16:46:20;18.40;86.00
53926;DHT22;39836;52.754;6.866;2023-07-31T16:49:01;18.40;86.00
53926;DHT22;39836;52.754;6.866;2023-07-31T16:51:37;18.40;86.00
53926;DHT22;39836;52.754;6.866;2023-07-31T16:54:14;18.30;86.00
53926;DHT22;39836;52.754;6.866;2023-07-31T16:57:14;18.30;86.00
53926;DHT22;39836;52.754;6.866;2023-07-31T17:00:33;18.20;86.00
53926;DHT22;39836;52.754;6.866;2023-07-31T17:02:53;18.10;85.90
53926;DHT22;39836;52.754;6.866;2023-07-31T17:05:19;18.10;86.00
53926;DHT22;39836;52.754;6.866;2023-07-31T17:07:48;18.00;85.90
53926;DHT22;39836;52.754;6.866;2023-07-31T17:10:45;18.00;86.00
53926;DHT22;39836;52.754;6.866;2023-07-31T17:25:38;17.80;85.90
53926;DHT22;39836;52.754;6.866;2023-07-31T17:28:07;17.70;85.90
53926;DHT22;39836;52.754;6.866;2023-07-31T18:23:48;17.00;85.80
53926;DHT22;39836;52.754;6.866;2023-07-31T21:32:21;16.70;85.60
53926;DHT22;39836;52.754;6.866;2023-07-31T21:34:48;16.60;85.60
53926;DHT22;39836;52.754;6.866;2023-07-31T21:37:14;16.70;85.60
53926;DHT22;39836;52.754;6.866;2023-07-31T21:39:40;16.60;85.60
53926;DHT22;39836;52.754;6.866;2023-07-31T21:42:10;16.70;85.60
53926;DHT22;39836;52.754;6.866;2023-07-31T21:45:00;16.70;85.60
53926;DHT22;39836;52.754;6.866;2023-07-31T21:47:25;16.70;85.60
53926;DHT22;39836;52.754;6.866;2023-07-31T21:49:51;16.70;85.60
53926;DHT22;39836;52.754;6.866;2023-07-31T21:52:17;16.70;85.60
53926;DHT22;39836;52.754;6.866;2023-07-31T21:54:42;16.70;85.60
53926;DHT22;39836;52.754;6.866;2023-07-31T21:57:08;16.70;85.60
53926;DHT22;39836;52.754;6.866;2023-07-31T21:59:34;16.70;85.60
53926;DHT22;39836;52.754;6.866;2023-07-31T22:02:01;16.70;85.60
53926;DHT22;39836;52.754;6.866;2023-07-31T22:04:27;16.70;85.60
53926;DHT22;39836;52.754;6.866;2023-07-31T22:06:53;16.70;85.60
53926;DHT22;39836;52.754;6.866;2023-07-31T22:09:19;16.60;85.60
53926;DHT22;39836;52.754;6.866;2023-07-31T22:12:00;16.70;85.60
53926;DHT22;39836;52.754;6.866;2023-07-31T22:14:59;16.60;85.60
53926;DHT22;39836;52.754;6.866;2023-07-31T22:17:35;16.20;85.40
53926;DHT22;39836;52.754;6.866;2023-07-31T22:24:22;16.70;85.60
53926;DHT22;39836;52.754;6.866;2023-07-31T22:27:07;16.60;85.60
53926;DHT22;39836;52.754;6.866;2023-07-31T22:29:39;16.70;85.60
53926;DHT22;39836;52.754;6.866;2023-07-31T22:32:38;16.70;85.60
53926;DHT22;39836;52.754;6.866;2023-07-31T22:35:23;16.40;85.50
53926;DHT22;39836;52.754;6.866;2023-07-31T22:56:53;16.60;85.60
53926;DHT22;39836;52.754;6.866;2023-07-31T23:03:09;16.30;85.50
53926;DHT22;39836;52.754;6.866;2023-07-31T23:05:39;16.50;85.50
53926;DHT22;39836;52.754;6.866;2023-07-31T23:28:03;16.30;85.50
53926;DHT22;39836;52.754;6.866;2023-07-31T23:37:00;16.30;85.50
53926;DHT22;39836;52.754;6.866;2023-07-31T23:39:28;16.30;85.50
53926;DHT22;39836;52.754;6.866;2023-07-31T23:46:00;16.30;85.50
